createdAt,value
2022-12-28T00:01:54.658Z,1.77
2022-12-28T00:04:22.882Z,2.13
2022-12-28T00:06:53.870Z,1.65
2022-12-28T00:09:21.825Z,1.95
2022-12-28T00:11:51.550Z,2.22
2022-12-28T00:14:19.809Z,2.35
2022-12-28T00:16:49.254Z,2.08
2022-12-28T00:19:18.448Z,2.50
2022-12-28T00:21:47.793Z,2.13
2022-12-28T00:24:20.022Z,2.17
2022-12-28T00:26:48.361Z,1.90
2022-12-28T00:29:16.350Z,2.30
2022-12-28T00:31:45.669Z,1.95
2022-12-28T00:34:16.669Z,2.05
2022-12-28T00:37:09.695Z,2.25
2022-12-28T00:39:32.565Z,2.13
2022-12-28T00:42:00.755Z,2.10
2022-12-28T00:44:29.861Z,2.10
2022-12-28T00:47:01.044Z,1.90
2022-12-28T00:49:32.933Z,2.10
2022-12-28T00:52:01.217Z,2.00
2022-12-28T00:54:29.495Z,1.80
2022-12-28T00:56:57.591Z,1.90
2022-12-28T00:59:25.859Z,2.10
2022-12-28T01:01:54.457Z,2.00
2022-12-28T01:04:22.921Z,2.05
2022-12-28T01:06:52.197Z,1.70
2022-12-28T01:09:20.155Z,1.90
2022-12-28T01:11:48.141Z,2.03
2022-12-28T01:14:16.109Z,1.80
2022-12-28T01:16:47.846Z,1.40
2022-12-28T01:19:19.746Z,1.60
2022-12-28T01:21:50.359Z,1.80
2022-12-28T01:24:19.774Z,1.48
2022-12-28T01:26:47.781Z,1.77
2022-12-28T01:29:15.916Z,1.40
2022-12-28T01:31:44.015Z,1.85
2022-12-28T01:34:15.028Z,1.30
2022-12-28T01:36:43.082Z,1.40
2022-12-28T01:39:13.216Z,1.30
2022-12-28T01:41:43.444Z,1.55
2022-12-28T01:44:50.043Z,1.48
2022-12-28T01:47:25.007Z,1.45
2022-12-28T01:49:59.887Z,1.45
2022-12-28T01:52:33.595Z,1.38
2022-12-28T01:55:09.618Z,1.30
2022-12-28T01:57:43.457Z,1.38
2022-12-28T02:00:13.954Z,1.55
2022-12-28T02:02:51.883Z,1.50
2022-12-28T02:05:22.691Z,1.20
2022-12-28T02:07:57.263Z,1.40
2022-12-28T02:10:40.456Z,1.20
2022-12-28T02:13:15.295Z,1.42
2022-12-28T02:15:44.458Z,1.33
2022-12-28T02:18:15.579Z,1.30
2022-12-28T02:20:56.157Z,1.45
2022-12-28T02:23:46.136Z,1.85
2022-12-28T02:26:40.282Z,1.35
2022-12-28T02:29:33.955Z,1.60
2022-12-28T02:32:12.103Z,1.20
2022-12-28T02:34:45.496Z,1.25
2022-12-28T02:37:19.972Z,1.20
2022-12-28T02:39:53.910Z,1.17
2022-12-28T02:42:25.085Z,1.23
2022-12-28T02:45:11.863Z,1.17
2022-12-28T02:48:00.593Z,1.25
2022-12-28T02:50:38.791Z,1.10
2022-12-28T02:53:30.671Z,1.30
2022-12-28T02:56:12.320Z,1.25
2022-12-28T02:59:13.723Z,1.13
2022-12-28T03:02:08.835Z,1.40
2022-12-28T03:04:48.474Z,1.40
2022-12-28T03:07:39.750Z,1.00
2022-12-28T03:10:15.727Z,1.05
2022-12-28T03:12:49.112Z,1.08
2022-12-28T03:15:31.687Z,1.15
2022-12-28T03:18:25.591Z,1.10
2022-12-28T03:24:00.675Z,1.10
2022-12-28T03:26:49.094Z,0.90
2022-12-28T03:29:38.902Z,1.20
2022-12-28T03:32:07.899Z,1.20
2022-12-28T03:34:39.208Z,1.25
2022-12-28T03:37:14.987Z,1.27
2022-12-28T03:39:51.666Z,1.05
2022-12-28T03:42:44.313Z,1.13
2022-12-28T03:45:45.948Z,1.13
2022-12-28T03:48:14.121Z,1.40
2022-12-28T03:50:47.221Z,1.05
2022-12-28T03:53:18.282Z,0.90
2022-12-28T03:55:46.948Z,0.98
2022-12-28T03:58:18.719Z,1.00
2022-12-28T04:00:47.075Z,0.90
2022-12-28T04:03:15.437Z,0.93
2022-12-28T04:05:45.812Z,1.00
2022-12-28T04:08:14.055Z,1.05
2022-12-28T04:10:42.128Z,0.90
2022-12-28T04:13:10.539Z,0.98
2022-12-28T04:15:55.581Z,0.93
2022-12-28T04:18:23.856Z,0.77
2022-12-28T04:20:55.618Z,1.00
2022-12-28T04:23:24.013Z,1.15
2022-12-28T04:26:01.081Z,0.90
2022-12-28T04:28:29.754Z,1.00
2022-12-28T04:31:23.453Z,0.85
2022-12-28T04:33:58.802Z,0.90
2022-12-28T04:36:28.634Z,0.80
2022-12-28T04:38:59.053Z,0.80
2022-12-28T04:41:27.384Z,0.70
2022-12-28T04:43:55.753Z,0.90
2022-12-28T04:46:24.084Z,1.10
2022-12-28T04:48:52.446Z,0.90
2022-12-28T04:51:22.550Z,0.88
2022-12-28T04:53:52.872Z,1.20
2022-12-28T04:56:22.744Z,1.08
2022-12-28T04:58:56.980Z,1.00
2022-12-28T05:01:25.616Z,0.80
2022-12-28T05:03:58.096Z,1.00
2022-12-28T05:06:28.257Z,0.80
2022-12-28T05:08:58.471Z,0.90
2022-12-28T05:11:28.636Z,1.10
2022-12-28T05:13:57.084Z,0.80
2022-12-28T05:16:27.481Z,0.80
2022-12-28T05:18:56.448Z,1.00
2022-12-28T05:21:27.207Z,0.93
2022-12-28T05:23:59.416Z,0.77
2022-12-28T05:26:29.757Z,0.90
2022-12-28T05:29:02.272Z,1.00
2022-12-28T05:31:32.769Z,1.00
2022-12-28T05:34:02.765Z,0.85
2022-12-28T05:36:33.699Z,1.05
2022-12-28T05:39:04.201Z,0.98
2022-12-28T05:41:33.142Z,0.85
2022-12-28T05:44:01.676Z,0.90
2022-12-28T05:46:32.302Z,0.93
2022-12-28T05:49:01.183Z,1.08
2022-12-28T05:51:33.803Z,0.95
2022-12-28T05:54:04.965Z,0.90
2022-12-28T05:56:34.014Z,0.80
2022-12-28T05:59:05.198Z,1.13
2022-12-28T06:01:34.992Z,1.00
2022-12-28T06:04:05.000Z,1.15
2022-12-28T06:06:34.718Z,1.30
2022-12-28T06:09:05.129Z,1.25
2022-12-28T06:11:33.714Z,1.00
2022-12-28T06:14:03.681Z,0.88
2022-12-28T06:16:33.285Z,0.88
2022-12-28T06:19:04.967Z,1.10
2022-12-28T06:21:34.450Z,0.93
2022-12-28T06:24:05.614Z,0.80
2022-12-28T06:26:36.171Z,0.80
2022-12-28T06:29:04.502Z,0.70
2022-12-28T06:31:33.923Z,0.80
2022-12-28T06:34:03.452Z,1.00
2022-12-28T06:36:33.953Z,0.80
2022-12-28T06:39:05.208Z,1.00
2022-12-28T06:41:35.138Z,1.15
2022-12-28T06:44:04.735Z,0.77
2022-12-28T06:46:34.890Z,1.00
2022-12-28T06:49:02.826Z,1.05
2022-12-28T06:51:36.085Z,1.05
2022-12-28T06:56:35.228Z,0.98
2022-12-28T06:59:04.343Z,0.80
2022-12-28T07:01:35.200Z,0.80
2022-12-28T07:04:05.311Z,0.80
2022-12-28T07:06:38.141Z,0.80
2022-12-28T07:09:12.132Z,1.08
2022-12-28T07:11:41.433Z,1.00
2022-12-28T07:14:11.092Z,1.00
2022-12-28T07:19:06.489Z,1.00
2022-12-28T07:21:36.434Z,1.13
2022-12-28T07:24:06.124Z,1.08
2022-12-28T07:26:37.556Z,0.80
2022-12-28T07:29:09.813Z,0.77
2022-12-28T07:31:45.401Z,0.90
2022-12-28T07:34:14.589Z,1.00
2022-12-28T07:36:43.712Z,0.80
2022-12-28T07:39:12.999Z,1.05
2022-12-28T07:41:42.278Z,1.05
2022-12-28T07:44:12.181Z,1.15
2022-12-28T07:46:40.283Z,1.10
2022-12-28T07:49:08.824Z,1.10
2022-12-28T07:51:38.859Z,0.88
2022-12-28T07:54:07.311Z,0.95
2022-12-28T07:59:06.566Z,1.10
2022-12-28T08:01:36.554Z,0.95
2022-12-28T08:04:07.501Z,1.10
2022-12-28T08:06:38.339Z,1.00
2022-12-28T08:09:08.352Z,1.00
2022-12-28T08:11:39.193Z,1.60
2022-12-28T08:14:09.621Z,1.30
2022-12-28T08:16:43.099Z,1.00
2022-12-28T08:19:12.213Z,1.25
2022-12-28T08:21:44.573Z,1.05
2022-12-28T08:24:15.893Z,1.08
2022-12-28T08:26:45.099Z,1.35
2022-12-28T08:29:16.993Z,1.38
2022-12-28T08:31:46.705Z,1.45
2022-12-28T08:34:17.800Z,1.10
2022-12-28T08:36:45.703Z,1.40
2022-12-28T08:39:14.769Z,1.15
2022-12-28T08:41:45.502Z,1.40
2022-12-28T08:44:14.863Z,1.45
2022-12-28T08:46:42.845Z,1.45
2022-12-28T08:49:11.012Z,1.50
2022-12-28T08:51:41.516Z,1.58
2022-12-28T08:54:11.046Z,1.50
2022-12-28T08:56:41.238Z,1.50
2022-12-28T08:59:10.372Z,1.45
2022-12-28T09:01:44.027Z,1.60
2022-12-28T09:04:17.330Z,1.45
2022-12-28T09:06:45.467Z,1.38
2022-12-28T09:09:15.621Z,1.75
2022-12-28T09:11:46.528Z,1.65
2022-12-28T09:14:23.340Z,1.45
2022-12-28T09:16:55.037Z,1.40
2022-12-28T09:19:25.385Z,1.60
2022-12-28T09:21:55.198Z,1.40
2022-12-28T09:24:24.682Z,1.38
2022-12-28T09:26:54.644Z,1.10
2022-12-28T09:29:22.760Z,1.10
2022-12-28T09:31:53.336Z,1.10
2022-12-28T09:34:38.009Z,1.20
2022-12-28T09:37:06.871Z,1.00
2022-12-28T09:39:34.961Z,1.10
2022-12-28T09:42:05.975Z,1.02
2022-12-28T09:44:56.038Z,1.30
2022-12-28T09:47:34.594Z,0.75
2022-12-28T09:50:29.885Z,0.90
2022-12-28T09:53:22.515Z,0.90
2022-12-28T09:55:58.299Z,0.68
2022-12-28T09:58:26.392Z,0.60
2022-12-28T10:00:57.584Z,0.77
2022-12-28T10:03:32.649Z,0.70
2022-12-28T10:06:03.310Z,0.60
2022-12-28T10:08:32.072Z,0.70
2022-12-28T10:11:03.111Z,0.68
2022-12-28T10:13:54.089Z,0.63
2022-12-28T10:16:24.027Z,0.50
2022-12-28T10:18:53.642Z,0.63
2022-12-28T10:21:30.096Z,0.88
2022-12-28T10:26:49.093Z,0.60
2022-12-28T10:29:20.728Z,0.63
2022-12-28T10:32:00.796Z,1.27
2022-12-28T10:34:35.230Z,0.88
2022-12-28T10:37:15.579Z,0.90
2022-12-28T10:39:50.798Z,0.77
2022-12-28T10:42:26.056Z,0.80
2022-12-28T10:44:54.933Z,0.80
2022-12-28T10:47:31.490Z,1.00
2022-12-28T10:52:58.788Z,0.68
2022-12-28T10:55:30.115Z,0.60
2022-12-28T10:58:33.255Z,0.70
2022-12-28T11:01:07.151Z,0.60
2022-12-28T11:03:38.966Z,0.70
2022-12-28T11:06:26.750Z,0.43
2022-12-28T11:09:04.518Z,0.40
2022-12-28T11:11:32.871Z,0.50
2022-12-28T11:14:04.647Z,0.70
2022-12-28T11:16:36.530Z,0.50
2022-12-28T11:19:04.701Z,0.55
2022-12-28T11:21:35.638Z,0.80
2022-12-28T11:24:04.710Z,0.63
2022-12-28T11:26:34.838Z,0.75
2022-12-28T11:29:03.495Z,0.80
2022-12-28T11:31:35.115Z,0.73
2022-12-28T11:34:06.671Z,0.60
2022-12-28T11:36:41.419Z,0.40
2022-12-28T11:39:32.488Z,0.65
2022-12-28T11:44:52.553Z,0.50
2022-12-28T11:47:33.102Z,0.50
2022-12-28T11:50:42.100Z,0.60
2022-12-28T11:53:45.383Z,0.60
2022-12-28T11:56:14.335Z,0.43
2022-12-28T11:58:48.073Z,0.50
2022-12-28T12:01:44.741Z,0.47
2022-12-28T12:04:38.248Z,0.50
2022-12-28T12:07:31.963Z,0.70
2022-12-28T12:10:35.572Z,0.63
2022-12-28T12:13:19.948Z,0.67
2022-12-28T12:15:49.460Z,0.40
2022-12-28T12:18:22.030Z,0.45
2022-12-28T12:21:01.608Z,0.50
2022-12-28T12:23:35.483Z,0.60
2022-12-28T12:26:21.895Z,0.50
2022-12-28T12:28:51.495Z,0.65
2022-12-28T12:32:12.473Z,0.70
2022-12-28T12:34:45.910Z,0.60
2022-12-28T12:40:46.304Z,0.75
2022-12-28T12:43:30.223Z,0.65
2022-12-28T12:46:14.304Z,0.50
2022-12-28T12:49:01.382Z,0.70
2022-12-28T12:51:34.154Z,0.75
2022-12-28T12:54:17.805Z,0.88
2022-12-28T12:59:36.827Z,0.40
2022-12-28T13:02:24.361Z,0.63
2022-12-28T13:04:52.662Z,0.60
2022-12-28T13:07:23.715Z,0.40
2022-12-28T13:09:54.476Z,0.40
2022-12-28T13:12:23.075Z,0.82
2022-12-28T13:14:58.234Z,0.50
2022-12-28T13:17:27.253Z,0.60
2022-12-28T13:20:10.913Z,0.43
2022-12-28T13:22:46.421Z,0.47
2022-12-28T13:25:25.844Z,0.60
2022-12-28T13:27:53.897Z,0.60
2022-12-28T13:30:26.377Z,0.40
2022-12-28T13:32:56.090Z,0.47
2022-12-28T13:35:26.847Z,0.63
2022-12-28T13:38:03.600Z,0.75
2022-12-28T13:40:32.994Z,0.45
2022-12-28T13:43:18.781Z,0.60
2022-12-28T13:45:52.865Z,0.47
2022-12-28T13:48:21.823Z,0.57
2022-12-28T13:50:50.179Z,0.60
2022-12-28T13:53:21.748Z,0.50
2022-12-28T13:55:52.761Z,0.73
2022-12-28T13:58:25.821Z,0.47
2022-12-28T14:00:57.823Z,0.43
2022-12-28T14:03:26.286Z,0.75
2022-12-28T14:05:59.927Z,0.57
2022-12-28T14:08:29.527Z,0.50
2022-12-28T14:10:57.688Z,1.25
2022-12-28T14:13:27.093Z,1.13
2022-12-28T14:15:57.259Z,0.80
2022-12-28T14:18:26.711Z,0.63
2022-12-28T14:20:56.645Z,0.85
2022-12-28T14:23:26.728Z,0.88
2022-12-28T14:25:59.423Z,0.90
2022-12-28T14:28:32.904Z,0.60
2022-12-28T14:31:04.186Z,0.75
2022-12-28T14:33:36.137Z,0.70
2022-12-28T14:36:07.059Z,0.70
2022-12-28T14:38:38.314Z,0.80
2022-12-28T14:41:07.324Z,0.57
2022-12-28T14:43:36.979Z,0.60
2022-12-28T14:46:18.357Z,0.60
2022-12-28T14:48:46.565Z,0.73
2022-12-28T14:51:29.581Z,0.50
2022-12-28T14:54:21.419Z,0.52
2022-12-28T14:57:00.841Z,0.68
2022-12-28T14:59:33.953Z,0.50
2022-12-28T15:02:03.520Z,0.60
2022-12-28T15:04:40.216Z,0.77
2022-12-28T15:07:09.822Z,0.77
2022-12-28T15:09:38.134Z,0.73
2022-12-28T15:12:11.712Z,0.82
2022-12-28T15:14:40.169Z,0.80
2022-12-28T15:17:09.979Z,0.90
2022-12-28T15:23:51.904Z,0.70
2022-12-28T15:26:20.973Z,0.82
2022-12-28T15:28:50.587Z,0.73
2022-12-28T15:31:20.381Z,0.80
2022-12-28T15:33:50.132Z,0.95
2022-12-28T15:36:20.878Z,0.60
2022-12-28T15:38:49.970Z,0.75
2022-12-28T15:41:36.785Z,0.70
2022-12-28T15:44:05.146Z,0.98
2022-12-28T15:46:33.379Z,0.80
2022-12-28T15:49:05.075Z,0.80
2022-12-28T15:51:33.243Z,0.82
2022-12-28T15:54:01.968Z,0.88
2022-12-28T15:56:33.812Z,1.23
2022-12-28T15:59:05.644Z,0.80
2022-12-28T16:01:34.424Z,1.20
2022-12-28T16:04:05.573Z,0.90
2022-12-28T16:06:41.849Z,1.10
2022-12-28T16:09:12.451Z,1.08
2022-12-28T16:11:42.942Z,1.08
2022-12-28T16:14:15.174Z,1.38
2022-12-28T16:16:44.752Z,1.30
2022-12-28T16:19:16.213Z,1.50
2022-12-28T16:21:44.482Z,1.20
2022-12-28T16:24:15.128Z,1.45
2022-12-28T16:26:44.015Z,1.27
2022-12-28T16:29:12.113Z,1.20
2022-12-28T16:31:41.235Z,1.23
2022-12-28T16:34:12.627Z,1.25
2022-12-28T16:36:42.404Z,1.08
2022-12-28T16:39:14.091Z,1.25
2022-12-28T16:41:45.663Z,1.20
2022-12-28T16:44:16.268Z,1.30
2022-12-28T16:46:44.543Z,1.42
2022-12-28T16:49:15.057Z,1.25
2022-12-28T16:51:46.841Z,1.30
2022-12-28T16:54:17.249Z,1.55
2022-12-28T16:56:45.441Z,1.13
2022-12-28T16:59:17.310Z,1.50
2022-12-28T17:01:45.954Z,1.52
2022-12-28T17:04:14.602Z,1.52
2022-12-28T17:06:46.456Z,1.38
2022-12-28T17:09:14.925Z,1.58
2022-12-28T17:11:42.951Z,1.73
2022-12-28T17:14:12.810Z,1.60
2022-12-28T17:16:41.247Z,1.45
2022-12-28T17:19:09.293Z,1.60
2022-12-28T17:21:37.434Z,1.10
2022-12-28T17:24:07.648Z,2.00
2022-12-28T17:26:35.700Z,1.80
2022-12-28T17:29:05.321Z,1.40
2022-12-28T17:31:33.520Z,1.10
2022-12-28T17:34:03.820Z,1.58
2022-12-28T17:36:33.931Z,1.90
2022-12-28T17:39:02.053Z,2.13
2022-12-28T17:41:31.491Z,2.55
2022-12-28T17:44:01.105Z,2.80
2022-12-28T17:46:31.543Z,4.15
2022-12-28T17:49:00.962Z,2.42
2022-12-28T17:51:29.407Z,3.38
2022-12-28T17:53:58.135Z,3.10
2022-12-28T17:56:27.910Z,2.75
2022-12-28T17:58:59.695Z,2.35
2022-12-28T18:01:28.815Z,2.00
2022-12-28T18:03:56.915Z,2.47
2022-12-28T18:06:25.443Z,1.70
2022-12-28T18:08:53.400Z,1.83
2022-12-28T18:11:21.632Z,2.25
2022-12-28T18:13:49.989Z,1.60
2022-12-28T18:16:21.205Z,2.00
2022-12-28T18:18:49.355Z,2.80
2022-12-28T18:21:21.892Z,2.22
2022-12-28T18:23:52.652Z,2.30
2022-12-28T18:26:22.346Z,2.20
2022-12-28T18:28:51.252Z,1.95
2022-12-28T18:31:21.922Z,2.13
2022-12-28T18:33:49.930Z,2.00
2022-12-28T18:36:18.633Z,2.20
2022-12-28T18:38:49.915Z,1.52
2022-12-28T18:41:22.506Z,2.10
2022-12-28T18:43:52.243Z,1.90
2022-12-28T18:46:21.672Z,2.13
2022-12-28T18:48:49.732Z,2.45
2022-12-28T18:51:19.800Z,1.92
2022-12-28T18:53:48.482Z,2.17
2022-12-28T18:56:18.054Z,2.33
2022-12-28T18:58:50.399Z,2.20
2022-12-28T19:02:04.020Z,2.20
2022-12-28T19:04:12.213Z,2.28
2022-12-28T19:06:40.910Z,1.73
2022-12-28T19:09:09.874Z,1.77
2022-12-28T19:11:39.050Z,2.00
2022-12-28T19:14:08.783Z,1.85
2022-12-28T19:16:36.892Z,2.00
2022-12-28T19:19:05.210Z,2.00
2022-12-28T19:21:37.888Z,2.20
2022-12-28T19:24:08.025Z,2.03
2022-12-28T19:26:37.002Z,1.70
2022-12-28T19:29:05.701Z,2.20
2022-12-28T19:31:37.042Z,1.90
2022-12-28T19:34:05.316Z,2.20
2022-12-28T19:36:34.651Z,2.47
2022-12-28T19:39:02.692Z,2.03
2022-12-28T19:41:30.866Z,1.77
2022-12-28T19:43:58.914Z,1.80
2022-12-28T19:46:31.305Z,1.80
2022-12-28T19:49:00.391Z,1.88
2022-12-28T19:51:31.716Z,2.00
2022-12-28T19:54:02.179Z,2.20
2022-12-28T19:56:33.187Z,2.45
2022-12-28T19:59:06.729Z,2.45
2022-12-28T20:01:38.315Z,2.13
2022-12-28T20:04:12.800Z,2.17
2022-12-28T20:06:45.693Z,2.17
2022-12-28T20:09:15.979Z,1.95
2022-12-28T20:11:44.865Z,2.60
2022-12-28T20:14:15.839Z,2.63
2022-12-28T20:16:49.826Z,2.22
2022-12-28T20:19:17.776Z,2.50
2022-12-28T20:21:45.753Z,2.47
2022-12-28T20:24:19.841Z,2.40
2022-12-28T20:26:47.852Z,2.38
2022-12-28T20:29:16.417Z,2.10
2022-12-28T20:31:44.548Z,2.08
2022-12-28T20:34:12.771Z,1.73
2022-12-28T20:36:40.711Z,1.80
2022-12-28T20:39:08.688Z,2.00
2022-12-28T20:41:56.223Z,1.92
2022-12-28T20:44:26.458Z,1.90
2022-12-28T20:46:55.150Z,1.80
2022-12-28T20:49:23.908Z,1.60
2022-12-28T20:51:52.407Z,1.67
2022-12-28T20:54:20.672Z,1.58
2022-12-28T20:56:54.761Z,2.08
2022-12-28T20:59:24.811Z,1.73
2022-12-28T21:01:53.549Z,1.65
2022-12-28T21:04:23.849Z,1.63
2022-12-28T21:06:51.994Z,1.90
2022-12-28T21:09:21.517Z,1.80
2022-12-28T21:11:50.895Z,1.70
2022-12-28T21:14:19.161Z,1.75
2022-12-28T21:16:47.257Z,1.52
2022-12-28T21:19:16.745Z,1.73
2022-12-28T21:21:44.702Z,1.67
2022-12-28T21:24:12.770Z,1.58
2022-12-28T21:26:40.738Z,1.92
2022-12-28T21:29:12.534Z,1.90
2022-12-28T21:31:40.546Z,1.75
2022-12-28T21:34:09.064Z,1.55
2022-12-28T21:36:39.132Z,1.80
2022-12-28T21:39:08.530Z,1.88
2022-12-28T21:41:51.690Z,2.05
2022-12-28T21:44:22.972Z,1.90
2022-12-28T21:46:53.844Z,2.10
2022-12-28T21:49:23.306Z,1.92
2022-12-28T21:51:51.721Z,2.03
2022-12-28T21:54:22.118Z,1.90
2022-12-28T21:56:53.020Z,1.95
2022-12-28T21:59:23.786Z,2.05
2022-12-28T22:02:09.614Z,1.75
2022-12-28T22:05:00.457Z,2.17
2022-12-28T22:07:30.569Z,1.90
2022-12-28T22:10:16.264Z,1.77
2022-12-28T22:12:44.285Z,2.00
2022-12-28T22:15:33.503Z,2.03
2022-12-28T22:18:02.881Z,1.80
2022-12-28T22:20:32.127Z,2.00
2022-12-28T22:23:02.415Z,1.88
2022-12-28T22:25:32.653Z,1.95
2022-12-28T22:28:01.380Z,1.80
2022-12-28T22:30:31.563Z,2.15
2022-12-28T22:32:59.847Z,1.80
2022-12-28T22:35:27.848Z,2.03
2022-12-28T22:37:56.018Z,1.83
2022-12-28T22:40:24.293Z,2.05
2022-12-28T22:42:52.230Z,2.25
2022-12-28T22:45:22.939Z,2.00
2022-12-28T22:47:56.192Z,2.00
2022-12-28T22:52:51.986Z,1.40
2022-12-28T22:55:19.924Z,1.65
2022-12-28T22:57:50.131Z,1.60
2022-12-28T23:00:18.288Z,1.80
2022-12-28T23:02:46.508Z,1.25
2022-12-28T23:05:17.117Z,1.55
2022-12-28T23:07:45.170Z,1.48
2022-12-28T23:10:13.329Z,1.60
2022-12-28T23:12:42.559Z,1.33
2022-12-28T23:15:18.415Z,1.27
2022-12-28T23:17:46.988Z,1.40
2022-12-28T23:20:35.630Z,1.23
2022-12-28T23:23:21.600Z,1.25
2022-12-28T23:26:06.937Z,1.50
2022-12-28T23:28:37.795Z,1.23
2022-12-28T23:31:07.220Z,1.13
2022-12-28T23:33:36.696Z,1.10
2022-12-28T23:36:06.896Z,1.20
2022-12-28T23:38:35.259Z,1.60
2022-12-28T23:41:24.534Z,1.35
2022-12-28T23:43:52.602Z,1.38
2022-12-28T23:46:20.677Z,1.13
2022-12-28T23:48:48.722Z,1.40
2022-12-28T23:51:18.242Z,1.25
2022-12-28T23:53:46.303Z,1.20
2022-12-28T23:56:14.489Z,1.23
2022-12-28T23:58:42.417Z,0.95
